Time;durP1;ratioP1;P1;durP2;ratioP2;P2;SDS_P1;SDS_P2;PMS_P1;PMS_P2;Temp;Humidity;BMP_temperature;BMP_pressure;BME280_temperature;BME280_humidity;BME280_pressure;Samples;Min_cycle;Max_cycle;Signal;HPM_P1;HPM_P2
2024/03/17 00:02:10;;;;;;;8.65;1.00;;;4.90;99.90;;;;;;5015049;28;20022;-78
2024/03/17 00:04:36;;;;;;;8.82;0.88;;;5.00;99.90;;;;;;5014731;28;20474;-78
2024/03/17 00:07:02;;;;;;;4.18;1.25;;;4.90;99.90;;;;;;5015404;28;20033;-78
2024/03/17 00:09:28;;;;;;;6.78;0.80;;;4.90;99.90;;;;;;5015428;28;20026;-78
2024/03/17 00:11:55;;;;;;;5.70;1.00;;;4.90;99.90;;;;;;5017551;28;20076;-79
2024/03/17 00:14:21;;;;;;;7.68;0.82;;;4.90;99.90;;;;;;5016557;28;20030;-78
2024/03/17 00:16:48;;;;;;;5.47;1.60;;;5.00;99.90;;;;;;5018088;28;20060;-78
2024/03/17 00:19:14;;;;;;;13.43;1.48;;;4.90;99.90;;;;;;5019265;28;20034;-77
2024/03/17 00:21:40;;;;;;;10.75;2.72;;;5.00;99.90;;;;;;5016565;28;20034;-78
2024/03/17 00:24:06;;;;;;;6.70;1.05;;;5.10;99.90;;;;;;5016666;28;20116;-78
2024/03/17 00:26:34;;;;;;;7.82;1.58;;;5.10;99.90;;;;;;5016968;28;20025;-78
2024/03/17 00:28:59;;;;;;;11.23;1.58;;;5.10;99.90;;;;;;5016485;28;20053;-78
2024/03/17 00:31:25;;;;;;;5.95;1.83;;;5.10;99.90;;;;;;5017923;28;20401;-78
2024/03/17 00:33:54;;;;;;;11.38;2.13;;;5.10;99.90;;;;;;5016190;28;20022;-78
2024/03/17 00:36:20;;;;;;;;;;;6.40;99.90;;;;;;5018079;28;20108;-78
2024/03/17 00:38:45;;;;;;;5.20;1.17;;;5.10;99.90;;;;;;5019288;28;19999;-78
2024/03/17 00:41:11;;;;;;;4.80;1.60;;;5.10;99.90;;;;;;5016082;28;20030;-78
2024/03/17 00:43:37;;;;;;;9.13;1.95;;;5.20;99.90;;;;;;5016048;28;20018;-78
2024/03/17 00:46:03;;;;;;;8.00;1.50;;;5.10;99.90;;;;;;5017427;28;20084;-78
2024/03/17 00:48:29;;;;;;;4.40;1.30;;;5.10;99.90;;;;;;5016102;28;20030;-78
2024/03/17 00:50:58;;;;;;;7.13;1.65;;;5.20;99.90;;;;;;5015925;28;20157;-78
2024/03/17 00:53:25;;;;;;;7.63;0.98;;;5.20;99.90;;;;;;5016998;28;20040;-78
2024/03/17 00:55:57;;;;;;;4.43;1.33;;;5.20;99.90;;;;;;5017110;28;20025;-77
2024/03/17 00:58:23;;;;;;;7.28;1.88;;;5.10;99.90;;;;;;5016833;28;20070;-78
2024/03/17 01:00:49;;;;;;;6.72;1.83;;;4.70;99.90;;;;;;5018266;28;20022;-77
2024/03/17 01:03:18;;;;;;;8.52;1.75;;;5.20;99.90;;;;;;5016160;28;20022;-78
2024/03/17 01:05:46;;;;;;;12.55;1.83;;;5.20;99.90;;;;;;5017399;28;20022;-78
2024/03/17 01:08:13;;;;;;;9.27;1.88;;;5.20;99.90;;;;;;5017327;28;20022;-79
2024/03/17 01:10:40;;;;;;;6.38;1.58;;;5.20;99.90;;;;;;5017339;28;20029;-78
2024/03/17 01:13:07;;;;;;;8.18;1.70;;;5.80;99.90;;;;;;5018187;28;20041;-78
2024/03/17 01:15:33;;;;;;;12.27;1.25;;;5.30;99.90;;;;;;5018494;28;20030;-77
2024/03/17 01:17:59;;;;;;;15.05;2.65;;;5.30;99.90;;;;;;5016912;28;20045;-78
2024/03/17 01:20:25;;;;;;;7.05;1.63;;;5.30;99.90;;;;;;5015308;28;20034;-79
2024/03/17 01:22:51;;;;;;;8.15;1.27;;;5.30;99.90;;;;;;5018971;28;20086;-78
2024/03/17 01:25:17;;;;;;;9.73;2.58;;;5.30;99.90;;;;;;5018329;28;20053;-79
2024/03/17 01:27:43;;;;;;;6.97;1.33;;;5.30;99.90;;;;;;5017858;28;20080;-78
2024/03/17 01:30:12;;;;;;;9.20;2.25;;;5.40;99.90;;;;;;5015827;28;20021;-78
2024/03/17 01:32:38;;;;;;;11.23;2.40;;;5.40;99.90;;;;;;5018482;28;20017;-78
2024/03/17 01:35:05;;;;;;;8.50;2.17;;;5.40;99.90;;;;;;5015295;28;20069;-78
2024/03/17 01:37:31;;;;;;;6.03;2.53;;;5.40;99.90;;;;;;5015722;28;20034;-78
2024/03/17 01:39:58;;;;;;;7.88;2.10;;;5.40;99.90;;;;;;5017235;28;20022;-77
2024/03/17 01:42:23;;;;;;;13.48;2.50;;;5.40;99.90;;;;;;5016371;28;20021;-78
2024/03/17 01:44:50;;;;;;;7.90;2.58;;;5.50;99.90;;;;;;5016904;28;20101;-78
2024/03/17 01:47:18;;;;;;;7.75;2.58;;;5.50;99.90;;;;;;5015266;28;20446;-78
2024/03/17 01:49:46;;;;;;;8.07;2.00;;;5.50;99.90;;;;;;5014962;28;20029;-78
2024/03/17 01:52:11;;;;;;;9.17;2.43;;;5.50;99.90;;;;;;5015912;28;20125;-78
2024/03/17 01:54:38;;;;;;;10.43;2.08;;;5.50;99.90;;;;;;5017396;28;20455;-78
2024/03/17 01:57:03;;;;;;;5.18;2.15;;;5.40;99.90;;;;;;5016052;28;20390;-78
2024/03/17 01:59:30;;;;;;;8.43;2.15;;;5.50;99.90;;;;;;5016671;28;20017;-78
2024/03/17 02:01:56;;;;;;;15.35;2.65;;;5.40;99.90;;;;;;5015783;28;20052;-78
2024/03/17 02:04:22;;;;;;;8.57;3.08;;;5.50;99.90;;;;;;5014752;28;20018;-78
2024/03/17 02:06:48;;;;;;;11.43;2.78;;;5.50;99.90;;;;;;5016924;28;20037;-78
2024/03/17 02:09:13;;;;;;;13.05;2.97;;;5.50;99.90;;;;;;5015869;28;20069;-78
2024/03/17 02:11:39;;;;;;;7.03;2.38;;;5.50;99.90;;;;;;5018253;28;20037;-77
2024/03/17 02:14:07;;;;;;;10.68;2.65;;;5.50;99.90;;;;;;5014805;28;20034;-78
2024/03/17 02:16:33;;;;;;;11.47;2.73;;;5.60;99.90;;;;;;5017269;28;20018;-78
2024/03/17 02:18:59;;;;;;;5.25;2.38;;;5.90;99.90;;;;;;5017492;28;20026;-77
2024/03/17 02:21:30;;;;;;;12.48;2.55;;;5.60;99.90;;;;;;5015969;28;20044;-79
2024/03/17 02:23:56;;;;;;;6.75;2.20;;;5.70;99.90;;;;;;5014852;28;20057;-79
2024/03/17 02:26:23;;;;;;;7.70;2.40;;;5.70;99.90;;;;;;5016460;28;20107;-78
2024/03/17 02:28:49;;;;;;;10.05;2.90;;;5.80;99.90;;;;;;5016991;28;20026;-78
2024/03/17 02:31:16;;;;;;;8.07;2.13;;;5.80;99.90;;;;;;5014444;28;20421;-78
2024/03/17 02:33:42;;;;;;;12.32;4.75;;;5.80;99.90;;;;;;5015509;28;20417;-78
2024/03/17 02:36:09;;;;;;;11.32;2.45;;;5.90;99.90;;;;;;5013950;28;20397;-78
2024/03/17 02:41:19;;;;;;;10.40;2.42;;;7.30;99.90;;;;;;5016057;28;20052;-78
2024/03/17 02:43:46;;;;;;;9.77;2.10;;;6.10;99.90;;;;;;5014281;28;20022;-78
2024/03/17 02:46:13;;;;;;;7.00;1.98;;;6.10;99.90;;;;;;5014499;28;20034;-78
2024/03/17 02:48:46;;;;;;;8.32;2.35;;;6.10;99.90;;;;;;5013535;28;20014;-79
2024/03/17 02:51:17;;;;;;;8.98;2.72;;;6.10;99.90;;;;;;5014205;28;20159;-78
2024/03/17 02:53:44;;;;;;;7.38;2.42;;;6.10;99.90;;;;;;5012775;28;20393;-78
2024/03/17 02:56:11;;;;;;;6.20;2.08;;;6.20;99.90;;;;;;5013241;28;20025;-77
2024/03/17 02:58:37;;;;;;;5.72;2.03;;;6.20;99.90;;;;;;5012840;28;20033;-78
2024/03/17 03:01:06;;;;;;;12.13;4.05;;;6.20;99.90;;;;;;5014182;28;20033;-77
2024/03/17 03:03:32;;;;;;;4.05;1.95;;;6.20;99.90;;;;;;5014458;28;20048;-77
2024/03/17 03:06:00;;;;;;;11.70;2.97;;;6.20;99.90;;;;;;5013761;28;20500;-78
2024/03/17 03:08:26;;;;;;;11.87;2.60;;;6.20;99.90;;;;;;5013104;28;20034;-77
2024/03/17 03:10:53;;;;;;;9.90;2.13;;;6.30;99.90;;;;;;5012952;28;20268;-77
2024/03/17 03:13:19;;;;;;;6.93;2.50;;;6.30;99.90;;;;;;5013769;28;20120;-77
2024/03/17 03:15:47;;;;;;;9.05;2.75;;;6.50;99.90;;;;;;5013554;28;20026;-77
2024/03/17 03:18:13;;;;;;;7.85;3.05;;;6.40;99.90;;;;;;5012506;28;20467;-77
2024/03/17 03:20:39;;;;;;;7.07;2.00;;;6.40;99.90;;;;;;5014632;28;20081;-78
2024/03/17 03:23:05;;;;;;;5.60;2.47;;;6.40;99.90;;;;;;5013044;28;20370;-78
2024/03/17 03:25:30;;;;;;;9.13;2.58;;;6.60;99.90;;;;;;5014693;28;20077;-78
2024/03/17 03:27:57;;;;;;;6.00;2.53;;;6.40;99.90;;;;;;5014096;28;20164;-78
2024/03/17 03:30:23;;;;;;;8.40;2.70;;;6.40;99.90;;;;;;5012251;28;20030;-77
2024/03/17 03:32:49;;;;;;;8.50;3.17;;;6.40;99.90;;;;;;5012836;28;20030;-77
2024/03/17 03:35:15;;;;;;;9.02;2.58;;;6.40;99.90;;;;;;5013656;28;20441;-78
2024/03/17 03:37:41;;;;;;;6.78;2.60;;;6.50;99.90;;;;;;5014606;28;20113;-77
2024/03/17 03:40:17;;;;;;;6.53;2.30;;;6.50;99.90;;;;;;5012724;28;20022;-78
2024/03/17 03:42:44;;;;;;;8.52;2.90;;;6.50;99.90;;;;;;5013069;28;20044;-78
2024/03/17 03:45:13;;;;;;;7.35;2.78;;;6.50;99.90;;;;;;5015886;28;20026;-78
2024/03/17 03:47:42;;;;;;;8.80;3.90;;;6.60;99.90;;;;;;5017529;28;20022;-77
2024/03/17 03:50:11;;;;;;;9.00;3.00;;;6.60;99.90;;;;;;5018097;28;20097;-77
2024/03/17 03:52:37;;;;;;;;;;;7.20;99.90;;;;;;5018875;28;20026;-77
2024/03/17 03:55:04;;;;;;;11.27;2.88;;;6.60;99.90;;;;;;5017477;28;19905;-77
2024/03/17 03:57:31;;;;;;;8.30;2.72;;;6.60;99.90;;;;;;5016604;28;20034;-77
2024/03/17 03:59:58;;;;;;;6.43;2.85;;;6.60;99.90;;;;;;5017219;28;20071;-78
2024/03/17 04:02:27;;;;;;;7.68;2.80;;;6.60;99.90;;;;;;5017460;28;20108;-77
2024/03/17 04:04:53;;;;;;;8.50;3.35;;;6.70;99.90;;;;;;5016981;28;20366;-77
2024/03/17 04:07:18;;;;;;;10.30;3.05;;;6.70;99.90;;;;;;5017197;28;20035;-77
2024/03/17 04:09:44;;;;;;;7.20;3.30;;;6.70;99.90;;;;;;5017131;28;20026;-77
2024/03/17 04:12:09;;;;;;;7.85;2.78;;;6.70;99.90;;;;;;5016462;28;20498;-77
2024/03/17 04:14:35;;;;;;;5.97;2.38;;;6.80;99.90;;;;;;5017688;28;20026;-78
2024/03/17 04:17:01;;;;;;;5.13;2.67;;;6.70;99.90;;;;;;5018609;28;20037;-77
2024/03/17 04:19:26;;;;;;;8.15;2.58;;;6.80;99.90;;;;;;5017362;28;20026;-78
2024/03/17 04:21:54;;;;;;;7.88;2.83;;;6.70;99.90;;;;;;5017097;28;20025;-78
2024/03/17 04:24:19;;;;;;;7.13;2.67;;;6.80;99.90;;;;;;5017557;28;20025;-79
2024/03/17 04:26:45;;;;;;;7.18;2.75;;;6.80;99.90;;;;;;5017935;28;20398;-77
2024/03/17 04:29:10;;;;;;;8.10;2.50;;;6.80;99.90;;;;;;5016827;28;20065;-77
2024/03/17 04:31:37;;;;;;;6.25;2.92;;;6.80;99.90;;;;;;5016272;28;20033;-78
2024/03/17 04:34:03;;;;;;;5.63;2.92;;;6.80;99.90;;;;;;5017267;28;20022;-78
2024/03/17 04:36:29;;;;;;;7.30;2.53;;;6.80;99.90;;;;;;5016826;28;20022;-78
2024/03/17 04:38:54;;;;;;;6.82;2.97;;;6.80;99.90;;;;;;5015585;28;20030;-78
2024/03/17 04:41:20;;;;;;;8.52;2.70;;;6.80;99.90;;;;;;5016267;28;20148;-77
2024/03/17 04:43:46;;;;;;;9.45;3.05;;;6.80;99.90;;;;;;5015804;28;20036;-77
2024/03/17 04:46:13;;;;;;;11.80;3.10;;;8.10;99.90;;;;;;5015215;28;20026;-77
2024/03/17 04:48:39;;;;;;;9.55;2.88;;;6.70;99.90;;;;;;5015216;28;20022;-78
2024/03/17 04:51:05;;;;;;;9.90;3.85;;;6.70;99.90;;;;;;5016165;28;20512;-78
2024/03/17 04:53:31;;;;;;;11.48;3.60;;;6.70;99.90;;;;;;5016333;28;20033;-78
2024/03/17 04:56:06;;;;;;;8.77;2.65;;;6.80;99.90;;;;;;5014933;28;20026;-77
2024/03/17 04:58:33;;;;;;;5.07;2.45;;;6.80;99.90;;;;;;5016779;28;20426;-78
2024/03/17 05:01:04;;;;;;;10.70;3.05;;;6.80;99.90;;;;;;5015653;28;20026;-77
2024/03/17 05:03:29;;;;;;;5.25;2.30;;;6.80;99.90;;;;;;5016097;28;20034;-77
2024/03/17 05:06:02;;;;;;;15.80;3.80;;;6.80;99.90;;;;;;5017003;28;20239;-78
2024/03/17 05:08:29;;;;;;;8.73;2.95;;;7.70;99.90;;;;;;5014743;28;20026;-77
2024/03/17 05:10:59;;;;;;;9.15;3.45;;;6.80;99.90;;;;;;5017568;28;20026;-79
2024/03/17 05:13:28;;;;;;;6.45;3.03;;;6.80;99.90;;;;;;5016649;28;20034;-79
2024/03/17 05:15:54;;;;;;;6.03;2.92;;;6.80;99.90;;;;;;5015085;28;20519;-78
2024/03/17 05:18:20;;;;;;;10.52;3.40;;;7.80;99.90;;;;;;5016312;28;20157;-78
2024/03/17 05:20:49;;;;;;;7.50;3.00;;;6.80;99.90;;;;;;5015942;28;20539;-78
2024/03/17 05:23:15;;;;;;;6.13;3.08;;;6.70;99.90;;;;;;5014836;28;20117;-78
2024/03/17 05:25:41;;;;;;;7.88;3.03;;;6.70;99.90;;;;;;5014979;28;20027;-77
2024/03/17 05:28:07;;;;;;;8.88;3.55;;;6.80;99.90;;;;;;5014883;28;20390;-78
2024/03/17 05:30:36;;;;;;;7.22;2.83;;;6.80;99.90;;;;;;5014884;28;20496;-77
2024/03/17 05:33:02;;;;;;;8.43;3.08;;;6.80;99.90;;;;;;5016380;28;20033;-77
2024/03/17 05:35:28;;;;;;;7.72;2.70;;;6.70;99.90;;;;;;5015512;28;20026;-78
2024/03/17 05:37:54;;;;;;;10.95;3.33;;;8.00;99.90;;;;;;5015253;28;20030;-78
2024/03/17 05:40:19;;;;;;;7.38;3.63;;;6.70;99.90;;;;;;5015254;28;20029;-78
2024/03/17 05:42:45;;;;;;;7.45;3.20;;;6.70;99.90;;;;;;5015408;28;20026;-77
2024/03/17 05:45:13;;;;;;;8.80;3.47;;;6.60;99.90;;;;;;5014847;28;20018;-78
2024/03/17 05:47:41;;;;;;;7.05;3.03;;;6.60;99.90;;;;;;5014189;28;20029;-78
2024/03/17 05:50:07;;;;;;;8.38;2.80;;;6.60;99.90;;;;;;5015326;28;20549;-78
2024/03/17 05:52:32;;;;;;;8.90;3.53;;;6.60;99.90;;;;;;5014814;28;20057;-78
2024/03/17 05:54:58;;;;;;;7.75;3.03;;;6.60;99.90;;;;;;5014239;28;20087;-78
2024/03/17 05:57:24;;;;;;;8.50;3.33;;;6.60;99.90;;;;;;5014331;28;20546;-77
2024/03/17 05:59:49;;;;;;;6.57;2.67;;;6.60;99.90;;;;;;5015211;28;20032;-78
2024/03/17 06:02:16;;;;;;;11.43;3.50;;;6.50;99.90;;;;;;5013886;28;20163;-78
2024/03/17 06:04:41;;;;;;;7.75;3.20;;;6.70;99.90;;;;;;5014788;28;20454;-78
2024/03/17 06:07:08;;;;;;;7.53;2.85;;;6.60;99.90;;;;;;5014737;28;20021;-80
2024/03/17 06:09:34;;;;;;;8.77;2.78;;;;;;;;;;5014703;28;20022;-79
2024/03/17 06:12:00;;;;;;;8.98;3.83;;;6.60;99.90;;;;;;5014512;28;20060;-78
2024/03/17 06:14:26;;;;;;;7.43;3.78;;;;;;;;;;5015368;28;20528;-78
2024/03/17 06:16:52;;;;;;;5.50;3.03;;;6.70;99.90;;;;;;5016660;28;20422;-78
2024/03/17 06:19:17;;;;;;;8.98;3.03;;;6.90;99.90;;;;;;5017133;28;20034;-78
2024/03/17 06:21:43;;;;;;;8.38;3.08;;;6.90;99.90;;;;;;5014949;28;20115;-78
2024/03/17 06:24:09;;;;;;;8.00;2.80;;;6.90;99.90;;;;;;5014150;28;20026;-78
2024/03/17 06:26:35;;;;;;;6.07;2.45;;;7.00;99.90;;;;;;5015817;28;20022;-78
2024/03/17 06:29:01;;;;;;;9.15;4.20;;;7.00;99.90;;;;;;5014927;28;20153;-78
2024/03/17 06:31:26;;;;;;;9.32;3.25;;;7.10;99.90;;;;;;5013818;28;20024;-78
2024/03/17 06:33:52;;;;;;;6.88;3.10;;;7.10;99.90;;;;;;5014705;28;20109;-78
2024/03/17 06:36:18;;;;;;;5.85;2.92;;;7.10;99.90;;;;;;5014578;28;20397;-78
2024/03/17 06:38:43;;;;;;;8.23;3.55;;;7.10;99.90;;;;;;5013289;28;20022;-78
2024/03/17 06:41:14;;;;;;;6.10;3.28;;;7.30;99.90;;;;;;5012718;28;20025;-78
2024/03/17 06:43:41;;;;;;;7.78;3.15;;;7.30;99.90;;;;;;5015011;28;20021;-78
2024/03/17 06:46:07;;;;;;;9.82;3.38;;;7.40;99.90;;;;;;5014373;28;20029;-78
2024/03/17 06:48:33;;;;;;;7.07;3.28;;;7.40;99.90;;;;;;5015011;28;20022;-78
2024/03/17 06:50:59;;;;;;;9.48;3.35;;;7.30;99.90;;;;;;5013405;28;20133;-78
2024/03/17 06:53:28;;;;;;;5.68;2.78;;;7.30;99.90;;;;;;5014924;28;20026;-78
2024/03/17 06:55:58;;;;;;;11.57;3.40;;;7.40;99.90;;;;;;5015193;28;20033;-78
2024/03/17 06:58:26;;;;;;;7.30;3.38;;;7.50;99.90;;;;;;5012558;28;20485;-78
2024/03/17 07:01:01;;;;;;;6.15;3.40;;;7.50;99.90;;;;;;5013139;28;20029;-77
2024/03/17 07:03:31;;;;;;;9.02;4.00;;;;;;;;;;5012465;28;20067;-77
2024/03/17 07:06:02;;;;;;;7.13;2.90;;;7.70;99.90;;;;;;5014004;28;20026;-77
2024/03/17 07:08:28;;;;;;;7.95;3.80;;;7.60;99.90;;;;;;5012823;28;20440;-77
2024/03/17 07:11:05;;;;;;;11.10;3.63;;;7.70;99.90;;;;;;5014000;28;20029;-78
2024/03/17 07:13:42;;;;;;;7.20;3.92;;;7.80;99.90;;;;;;5014635;28;20029;-78
2024/03/17 07:16:07;;;;;;;7.70;3.53;;;7.80;99.90;;;;;;5013243;28;20022;-78
2024/03/17 07:18:34;;;;;;;8.50;4.28;;;7.80;99.90;;;;;;5014596;28;20029;-78
2024/03/17 07:21:03;;;;;;;8.82;3.63;;;7.90;99.90;;;;;;5023123;28;20504;-84
2024/03/17 07:23:30;;;;;;;9.43;4.25;;;8.00;99.90;;;;;;5024341;28;20029;-84
2024/03/17 07:25:58;;;;;;;10.10;4.15;;;8.10;99.90;;;;;;5026068;28;20033;-80
2024/03/17 07:28:24;;;;;;;6.85;3.28;;;8.20;99.90;;;;;;5029201;28;20033;-79
2024/03/17 07:30:58;;;;;;;9.25;3.95;;;8.20;99.90;;;;;;5020108;28;20040;-78
2024/03/17 07:33:24;;;;;;;9.15;3.80;;;8.20;99.90;;;;;;5017670;28;20033;-78
2024/03/17 07:35:52;;;;;;;17.33;6.28;;;8.30;99.90;;;;;;5020116;28;20030;-78
2024/03/17 07:38:18;;;;;;;10.38;4.43;;;8.40;99.90;;;;;;5019824;28;20034;-78
2024/03/17 07:40:54;;;;;;;10.52;4.10;;;8.40;99.90;;;;;;5018977;28;20080;-78
2024/03/17 07:43:20;;;;;;;7.38;3.70;;;8.50;99.90;;;;;;5018593;28;20018;-78
2024/03/17 07:45:47;;;;;;;7.43;3.28;;;8.60;99.90;;;;;;5016737;28;20604;-78
2024/03/17 07:48:12;;;;;;;6.28;4.05;;;8.70;99.90;;;;;;5017042;28;20032;-78
2024/03/17 07:50:38;;;;;;;7.03;3.50;;;8.90;99.90;;;;;;5018333;28;20018;-79
2024/03/17 07:53:05;;;;;;;10.57;4.22;;;9.00;99.90;;;;;;5018588;28;20022;-78
2024/03/17 07:55:31;;;;;;;9.25;4.38;;;9.10;99.90;;;;;;5018579;28;20390;-78
2024/03/17 07:57:57;;;;;;;7.35;4.07;;;9.20;99.90;;;;;;5017633;28;20084;-78
2024/03/17 08:00:22;;;;;;;9.55;3.83;;;9.60;99.90;;;;;;5018176;28;20058;-78
2024/03/17 08:02:48;;;;;;;8.77;4.03;;;9.30;99.90;;;;;;5016492;28;20029;-78
2024/03/17 08:05:14;;;;;;;7.80;3.58;;;9.40;99.90;;;;;;5016392;28;20470;-78
2024/03/17 08:07:42;;;;;;;8.68;4.05;;;9.30;99.90;;;;;;5016189;28;20018;-78
2024/03/17 08:10:08;;;;;;;5.97;3.10;;;9.30;99.90;;;;;;5016465;28;20101;-78
2024/03/17 08:12:33;;;;;;;8.27;3.05;;;9.30;99.90;;;;;;5016846;28;20084;-78
2024/03/17 08:14:59;;;;;;;9.38;3.65;;;9.20;99.90;;;;;;5015015;28;20116;-78
2024/03/17 08:17:25;;;;;;;8.30;3.80;;;9.20;99.90;;;;;;5015004;28;20076;-78
2024/03/17 08:19:51;;;;;;;6.55;3.28;;;9.20;99.90;;;;;;5017406;28;20025;-78
2024/03/17 08:22:17;;;;;;;8.48;2.92;;;9.30;99.90;;;;;;5014926;28;20548;-78
2024/03/17 08:24:43;;;;;;;8.65;4.13;;;9.20;99.90;;;;;;5016684;28;20056;-79
2024/03/17 08:27:08;;;;;;;13.85;4.20;;;9.30;99.90;;;;;;5017160;28;20026;-78
2024/03/17 08:29:34;;;;;;;6.85;3.35;;;9.30;99.90;;;;;;5016675;28;20046;-78
2024/03/17 08:32:00;;;;;;;11.75;3.67;;;9.40;99.90;;;;;;5016256;28;20033;-79
2024/03/17 08:34:26;;;;;;;8.75;4.05;;;9.50;99.90;;;;;;5017205;28;20053;-78
2024/03/17 08:36:51;;;;;;;10.45;3.35;;;9.60;99.90;;;;;;5018682;28;20482;-78
2024/03/17 08:39:18;;;;;;;6.63;3.38;;;9.60;99.90;;;;;;5017017;28;20018;-79
2024/03/17 08:41:45;;;;;;;9.07;3.55;;;9.70;99.90;;;;;;5017167;28;20109;-79
2024/03/17 08:44:11;;;;;;;5.28;2.97;;;9.90;99.90;;;;;;5017042;28;20021;-79
2024/03/17 08:46:37;;;;;;;6.93;3.00;;;9.90;99.90;;;;;;5017197;28;20025;-78
2024/03/17 08:49:02;;;;;;;8.30;3.53;;;10.00;99.90;;;;;;5016963;28;20018;-78
2024/03/17 08:51:28;;;;;;;10.23;3.53;;;10.10;99.90;;;;;;5016969;28;20076;-81
2024/03/17 08:53:54;;;;;;;8.10;3.28;;;10.20;99.90;;;;;;5015145;28;20052;-78
2024/03/17 08:56:20;;;;;;;8.45;3.83;;;10.30;99.90;;;;;;5017376;28;20034;-78
2024/03/17 08:58:46;;;;;;;5.68;2.95;;;10.30;99.90;;;;;;5017014;28;20115;-78
2024/03/17 09:01:15;;;;;;;8.15;3.38;;;10.50;99.90;;;;;;5014901;28;20026;-76
2024/03/17 09:03:41;;;;;;;7.60;3.42;;;10.60;99.90;;;;;;5015870;28;20022;-79
2024/03/17 09:06:16;;;;;;;8.45;3.75;;;10.60;99.90;;;;;;5015305;28;20111;-78
2024/03/17 09:08:42;;;;;;;7.38;3.20;;;10.70;99.90;;;;;;5015384;28;20018;-76
2024/03/17 09:11:14;;;;;;;8.07;3.58;;;10.70;99.90;;;;;;5017315;28;20048;-77
2024/03/17 09:13:43;;;;;;;9.20;3.63;;;11.20;99.90;;;;;;4993569;28;237606;-78
2024/03/17 09:16:11;;;;;;;8.48;3.30;;;10.70;99.90;;;;;;5015283;28;20489;-78
2024/03/17 09:18:38;;;;;;;7.40;2.72;;;10.70;99.90;;;;;;5016482;28;20030;-78
2024/03/17 09:21:07;;;;;;;8.15;3.03;;;10.60;99.90;;;;;;5017243;28;20061;-78
2024/03/17 09:23:36;;;;;;;;;;;10.60;99.90;;;;;;5017662;28;20045;-78
2024/03/17 09:26:05;;;;;;;7.72;3.97;;;10.60;99.90;;;;;;5016129;28;19906;-78
2024/03/17 09:28:31;;;;;;;6.93;3.15;;;10.70;99.90;;;;;;5015520;28;20018;-78
2024/03/17 09:30:58;;;;;;;7.68;3.50;;;10.70;99.90;;;;;;5015555;28;20030;-78
2024/03/17 09:33:25;;;;;;;6.68;3.25;;;10.70;99.90;;;;;;5015779;28;20033;-78
2024/03/17 09:36:01;;;;;;;10.55;3.53;;;10.70;99.90;;;;;;5017622;28;20355;-78
2024/03/17 09:38:28;;;;;;;10.70;3.47;;;10.90;99.90;;;;;;5015963;28;20030;-78
2024/03/17 09:40:57;;;;;;;5.75;2.97;;;10.80;99.90;;;;;;5016978;28;20025;-78
2024/03/17 09:43:27;;;;;;;7.05;3.13;;;11.00;99.90;;;;;;5015949;28;20025;-78
2024/03/17 09:46:02;;;;;;;13.07;3.88;;;11.00;99.90;;;;;;5017169;28;20098;-78
2024/03/17 09:48:28;;;;;;;6.50;3.20;;;11.10;99.90;;;;;;5016712;28;20022;-78
2024/03/17 09:50:59;;;;;;;8.85;3.25;;;11.10;99.90;;;;;;5016900;28;20041;-78
2024/03/17 09:53:29;;;;;;;6.15;2.63;;;11.20;99.90;;;;;;5016733;28;20026;-78
2024/03/17 09:56:03;;;;;;;6.68;3.90;;;11.20;99.90;;;;;;5016605;28;20026;-78
2024/03/17 09:58:28;;;;;;;5.10;3.10;;;11.30;99.90;;;;;;5015424;28;20440;-78
2024/03/17 10:00:54;;;;;;;7.60;3.28;;;11.40;99.90;;;;;;5016019;28;20021;-79
2024/03/17 10:03:51;;;;;;;9.32;3.67;;;11.50;99.90;;;;;;5016586;28;20026;-79
2024/03/17 10:06:21;;;;;;;6.28;3.10;;;11.50;99.90;;;;;;5015772;28;20553;-78
2024/03/17 10:08:48;;;;;;;6.65;3.13;;;11.60;99.90;;;;;;5014136;28;20425;-77
2024/03/17 10:11:15;;;;;;;7.03;3.45;;;11.70;99.90;;;;;;5016299;28;20022;-78
2024/03/17 10:13:45;;;;;;;6.50;2.65;;;11.90;99.90;;;;;;5016081;28;20034;-78
2024/03/17 10:16:24;;;;;;;5.75;2.95;;;12.10;99.90;;;;;;5017250;28;20422;-78
2024/03/17 10:19:04;;;;;;;8.20;2.97;;;12.40;99.90;;;;;;5017627;28;20029;-78
2024/03/17 10:21:30;;;;;;;7.10;2.83;;;13.00;99.90;;;;;;5017115;28;20112;-78
2024/03/17 10:24:13;;;;;;;7.78;3.60;;;13.10;99.90;;;;;;5015860;28;20470;-78
2024/03/17 10:26:42;;;;;;;7.25;3.20;;;13.30;99.90;;;;;;5017411;28;20032;-78
2024/03/17 10:29:30;;;;;;;4.63;2.95;;;13.60;99.90;;;;;;5014150;28;20038;-78
2024/03/17 10:32:13;;;;;;;8.02;2.72;;;13.70;99.90;;;;;;5014928;28;20051;-78
2024/03/17 10:34:39;;;;;;;9.68;3.28;;;13.70;99.90;;;;;;5015361;28;20116;-78
2024/03/17 10:37:12;;;;;;;4.65;2.35;;;13.80;99.90;;;;;;5015710;28;20076;-78
2024/03/17 10:39:39;;;;;;;4.68;2.60;;;13.80;99.90;;;;;;5014930;28;20429;-76
2024/03/17 10:42:07;;;;;;;6.13;3.15;;;13.80;99.90;;;;;;5014486;28;20026;-76
2024/03/17 10:44:35;;;;;;;4.93;2.22;;;13.90;99.90;;;;;;5014365;28;20033;-76
2024/03/17 10:47:02;;;;;;;6.67;2.50;;;13.90;99.90;;;;;;5014264;28;20010;-78
2024/03/17 10:49:33;;;;;;;7.07;2.50;;;14.00;99.90;;;;;;5015751;28;20103;-78
2024/03/17 10:52:02;;;;;;;5.20;2.53;;;14.10;99.90;;;;;;5014987;28;20022;-78
2024/03/17 10:54:28;;;;;;;5.50;2.17;;;14.30;99.90;;;;;;5014720;28;20018;-78
2024/03/17 10:57:17;;;;;;;5.60;2.63;;;14.50;99.90;;;;;;5016786;28;20444;-78
2024/03/17 10:59:47;;;;;;;6.97;2.58;;;14.80;99.90;;;;;;5014821;28;20030;-78
2024/03/17 11:02:32;;;;;;;4.18;2.33;;;14.80;99.90;;;;;;5015158;28;20054;-78
2024/03/17 11:05:06;;;;;;;5.50;2.20;;;14.80;99.90;;;;;;5014712;28;20026;-78
2024/03/17 11:07:33;;;;;;;5.10;2.70;;;14.80;99.90;;;;;;5016690;28;20022;-78
2024/03/17 11:09:59;;;;;;;5.28;2.10;;;14.80;99.90;;;;;;5016004;28;20100;-78
2024/03/17 11:12:46;;;;;;;6.22;2.33;;;14.80;99.90;;;;;;5017235;28;20030;-78
2024/03/17 11:15:33;;;;;;;3.80;2.08;;;14.80;99.90;;;;;;5014079;28;20045;-76
2024/03/17 11:18:11;;;;;;;6.10;2.55;;;14.70;99.90;;;;;;5012882;28;20393;-77
2024/03/17 11:20:41;;;;;;;5.30;2.00;;;14.50;99.90;;;;;;5012414;28;20489;-77
2024/03/17 11:23:09;;;;;;;11.18;2.80;;;14.30;99.90;;;;;;5014363;28;20485;-77
2024/03/17 11:25:38;;;;;;;9.15;2.22;;;14.20;99.90;;;;;;5014532;28;20543;-77
2024/03/17 11:28:09;;;;;;;5.47;2.65;;;14.20;99.90;;;;;;5013222;28;20018;-77
2024/03/17 11:30:44;;;;;;;5.30;2.45;;;14.10;99.90;;;;;;5015045;28;20045;-77
2024/03/17 11:33:37;;;;;;;6.32;2.95;;;13.90;99.90;;;;;;5013683;28;20030;-77
2024/03/17 11:36:27;;;;;;;7.93;2.60;;;13.80;99.90;;;;;;5012855;28;20026;-77
2024/03/17 11:38:58;;;;;;;5.65;2.92;;;13.80;99.90;;;;;;5012830;28;20089;-77
2024/03/17 11:41:37;;;;;;;3.80;2.15;;;13.80;99.90;;;;;;5012459;28;20073;-77
2024/03/17 11:44:27;;;;;;;6.03;2.90;;;13.80;99.90;;;;;;5012802;28;20105;-77
2024/03/17 11:46:55;;;;;;;6.18;2.38;;;13.90;99.90;;;;;;5013570;28;20030;-77
2024/03/17 11:49:23;;;;;;;4.72;2.40;;;13.80;99.90;;;;;;5013164;28;20029;-77
2024/03/17 11:51:53;;;;;;;4.50;2.58;;;13.80;99.90;;;;;;5014012;28;20045;-77
2024/03/17 11:54:21;;;;;;;8.32;3.00;;;13.80;99.90;;;;;;5012823;28;20030;-77
2024/03/17 11:56:49;;;;;;;7.57;3.50;;;13.80;99.90;;;;;;5014309;28;20034;-78
2024/03/17 11:59:17;;;;;;;9.65;3.45;;;13.90;99.90;;;;;;5012486;28;20099;-76
2024/03/17 12:01:45;;;;;;;4.38;2.42;;;13.90;99.90;;;;;;5012217;28;20101;-75
2024/03/17 12:04:12;;;;;;;6.63;2.90;;;13.90;99.90;;;;;;5011971;28;20069;-75
2024/03/17 12:06:38;;;;;;;7.07;3.13;;;13.90;99.90;;;;;;5016380;28;20389;-75
2024/03/17 12:09:22;;;;;;;7.50;2.50;;;13.90;99.90;;;;;;5017430;28;20034;-76
2024/03/17 12:11:49;;;;;;;7.03;3.08;;;14.00;99.90;;;;;;5016807;28;20036;-75
2024/03/17 12:14:19;;;;;;;7.90;3.65;;;14.00;99.90;;;;;;5016835;28;20041;-76
2024/03/17 12:17:08;;;;;;;5.28;2.65;;;14.00;99.90;;;;;;5015644;28;20037;-75
2024/03/17 12:19:34;;;;;;;8.73;2.97;;;13.90;99.90;;;;;;5017501;28;20044;-75
2024/03/17 12:22:01;;;;;;;6.53;3.17;;;13.90;99.90;;;;;;5016942;28;20106;-75
2024/03/17 12:24:29;;;;;;;5.43;2.50;;;13.90;99.90;;;;;;5016199;28;20481;-75
2024/03/17 12:26:59;;;;;;;6.30;2.72;;;13.90;99.90;;;;;;5015625;28;20022;-75
2024/03/17 12:29:35;;;;;;;7.22;3.55;;;13.90;99.90;;;;;;5017449;28;20026;-75
2024/03/17 12:32:05;;;;;;;6.05;3.22;;;13.80;99.90;;;;;;5016568;28;20026;-75
2024/03/17 12:34:33;;;;;;;7.07;3.20;;;13.80;99.90;;;;;;5015425;28;20030;-74
2024/03/17 12:37:00;;;;;;;6.55;2.40;;;13.80;99.90;;;;;;5017150;28;20025;-76
2024/03/17 12:39:27;;;;;;;7.82;2.75;;;13.80;99.90;;;;;;5015215;28;20025;-76
2024/03/17 12:42:06;;;;;;;8.32;2.58;;;13.80;99.90;;;;;;5016387;28;20033;-76
2024/03/17 12:44:33;;;;;;;6.47;2.83;;;13.70;99.90;;;;;;5016439;28;20363;-76
2024/03/17 12:47:04;;;;;;;8.68;3.33;;;13.70;99.90;;;;;;5016299;28;20072;-76
2024/03/17 12:49:31;;;;;;;6.05;3.15;;;13.50;99.90;;;;;;5016081;28;20022;-76
2024/03/17 12:51:57;;;;;;;12.73;3.55;;;13.40;99.90;;;;;;5016312;28;20030;-75
2024/03/17 12:54:27;;;;;;;7.22;3.05;;;13.40;99.90;;;;;;5015773;28;20100;-75
2024/03/17 13:02:33;;;;;;;7.53;2.63;;;13.40;99.90;;;;;;5015926;28;20056;-74
2024/03/17 13:05:11;;;;;;;7.40;3.63;;;13.40;99.90;;;;;;5016273;28;20104;-74
2024/03/17 13:07:37;;;;;;;13.15;3.50;;;13.40;99.90;;;;;;5015649;28;20084;-74